.
WxDataArchive / Data Records for 2011-06-02
2011-06-01 June 2011 2011-06-03

Data Records for Thursday, 02 June 2011

Time	Temp	Chill	HIndex	Humid	Dewpt	 Wind 	HiWind	WindDir	Rain 	Barom 
-----	----	-----	------	-----	-----	------	------	-------	-----	----- 
00:00	64.7	64.7	64.7	66	53.1	0	0	---	0.00	30.124 
00:05	64.5	64.5	64.5	66	52.9	0	0	---	0.00	30.124 
00:10	64.3	64.3	64.3	66	52.7	0	0	---	0.00	30.124 
00:15	64.2	64.2	64.2	67	53.0	0	0	---	0.00	30.126 
00:20	64.0	64.0	64.0	68	53.2	0	0	---	0.00	30.126 
00:25	63.9	63.9	63.9	70	53.9	0	0	---	0.00	30.126 
00:30	63.5	63.5	63.5	70	53.5	0	0	---	0.00	30.133 
00:35	63.2	63.2	63.2	70	53.2	0	0	---	0.00	30.133 
00:40	63.1	63.1	63.1	71	53.5	0	0	---	0.00	30.133 
00:45	62.7	62.7	62.7	72	53.5	0	0	---	0.00	30.137 
00:50	62.6	62.6	62.6	73	53.8	0	0	---	0.00	30.137 
00:55	62.4	62.4	62.4	73	53.6	0	0	---	0.00	30.137 
01:00	62.4	62.4	62.4	73	53.6	0	0	---	0.00	30.146 
01:05	62.4	62.4	62.4	72	53.2	0	0	---	0.00	30.146 
01:10	62.6	62.6	62.6	72	53.4	0	0	---	0.00	30.146 
01:15	62.6	62.6	62.6	72	53.4	0	0	---	0.00	30.145 
01:20	62.7	62.7	62.7	72	53.5	0	0	---	0.00	30.145 
01:25	63.1	63.1	63.1	71	53.5	0	0	---	0.00	30.145 
01:30	63.4	63.4	63.4	69	53.0	0	1	270	0.00	30.153 
01:35	63.9	63.9	63.9	68	53.1	0	1	270	0.00	30.153 
01:40	64.2	64.2	64.2	67	53.0	0	1	270	0.00	30.153 
01:45	64.3	64.3	64.3	67	53.1	0	1	270	0.00	30.154 
01:50	64.3	64.3	64.3	67	53.1	0	0	---	0.00	30.154 
01:55	64.3	64.3	64.3	67	53.1	0	0	---	0.00	30.154 
02:00	64.0	64.0	64.0	67	52.8	0	0	---	0.00	30.145 
02:05	63.9	63.9	63.9	68	53.1	0	0	---	0.00	30.145 
02:10	63.5	63.5	63.5	69	53.1	0	0	---	0.00	30.145 
02:15	63.4	63.4	63.4	69	53.0	0	0	---	0.00	30.144 
02:20	63.2	63.2	63.2	69	52.9	0	0	---	0.00	30.144 
02:25	62.9	62.9	62.9	70	53.0	0	0	---	0.00	30.144 
02:30	62.6	62.6	62.6	71	53.1	0	0	---	0.00	30.140 
02:35	62.4	62.4	62.4	71	52.9	0	0	---	0.00	30.140 
02:40	62.4	62.4	62.4	71	52.9	0	0	---	0.00	30.140 
02:45	62.1	62.1	62.1	71	52.6	0	0	---	0.00	30.140 
02:50	62.0	62.0	62.0	72	52.9	0	0	---	0.00	30.140 
02:55	61.8	61.8	61.8	73	53.0	0	0	---	0.00	30.140 
03:00	61.5	61.5	61.5	73	52.8	0	0	---	0.00	30.143 
03:05	61.2	61.2	61.2	74	52.8	0	0	---	0.00	30.143 
03:10	60.9	60.9	60.9	74	52.6	0	0	---	0.00	30.143 
03:15	60.5	60.5	60.5	75	52.5	0	0	---	0.00	30.143 
03:20	60.2	60.2	60.2	75	52.2	0	0	---	0.00	30.143 
03:25	60.1	60.1	60.1	76	52.5	0	0	---	0.00	30.143 
03:30	59.8	59.8	59.8	77	52.6	0	0	---	0.00	30.135 
03:35	59.5	59.5	59.5	78	52.6	0	0	---	0.00	30.135 
03:40	59.2	59.2	59.2	79	52.7	0	0	---	0.00	30.135 
03:45	58.9	58.9	58.9	80	52.7	0	0	---	0.00	30.130 
03:50	58.7	58.7	58.7	81	52.9	0	0	---	0.00	30.130 
03:55	58.4	58.4	58.4	81	52.6	0	0	---	0.00	30.130 
04:00	58.3	58.3	58.3	82	52.8	0	0	---	0.00	30.135 
04:05	58.1	58.1	58.1	82	52.6	0	0	---	0.00	30.135 
04:10	57.8	57.8	57.8	83	52.7	0	0	---	0.00	30.135 
04:15	57.6	57.6	57.6	83	52.5	0	0	---	0.00	30.135 
04:20	57.5	57.5	57.5	84	52.7	0	0	---	0.00	30.135 
04:25	57.3	57.3	57.3	84	52.5	0	0	---	0.00	30.135 
04:30	57.2	57.2	57.2	85	52.7	0	0	---	0.00	30.147 
04:35	57.0	57.0	57.0	85	52.5	0	0	---	0.00	30.147 
04:40	56.9	56.9	56.9	85	52.4	0	0	---	0.00	30.147 
04:45	56.9	56.9	56.9	85	52.4	0	0	---	0.00	30.146 
04:50	56.7	56.7	56.7	86	52.6	0	0	---	0.00	30.146 
04:55	56.6	56.6	56.6	86	52.5	0	0	---	0.00	30.146 
05:00	56.5	56.5	56.5	87	52.7	0	0	---	0.00	30.147 
05:05	56.3	56.3	56.3	87	52.5	0	0	---	0.00	30.147 
05:10	56.0	56.0	56.0	88	52.5	0	0	---	0.00	30.147 
05:15	56.0	56.0	56.0	88	52.5	0	0	---	0.00	30.149 
05:20	55.9	55.9	55.9	88	52.4	0	0	---	0.00	30.149 
05:25	55.7	55.7	55.7	88	52.2	0	0	---	0.00	30.149 
05:30	55.7	55.7	55.7	89	52.5	0	0	---	0.00	30.149 
05:35	55.6	55.6	55.6	89	52.4	0	0	---	0.00	30.149 
05:40	55.3	55.3	55.3	89	52.1	0	0	---	0.00	30.149 
05:45	55.1	55.1	55.1	89	51.9	0	0	---	0.00	30.161 
05:50	55.0	55.0	55.0	89	51.8	0	0	---	0.00	30.161 
05:55	55.0	55.0	55.0	90	52.1	0	0	---	0.00	30.161 
06:00	54.8	54.8	54.8	90	51.9	0	0	---	0.00	30.163 
06:05	54.7	54.7	54.7	90	51.8	0	0	---	0.00	30.163 
06:10	54.5	54.5	54.5	90	51.6	0	0	---	0.00	30.163 
06:15	54.4	54.4	54.4	90	51.5	0	0	---	0.00	30.164 
06:20	54.4	54.4	54.4	91	51.8	0	0	---	0.00	30.164 
06:25	54.2	54.2	54.2	90	51.3	0	0	---	0.00	30.164 
06:30	54.2	54.2	54.2	90	51.3	0	0	---	0.00	30.175 
06:35	54.4	54.4	54.4	90	51.5	0	0	---	0.00	30.175 
06:40	54.4	54.4	54.4	89	51.2	0	0	---	0.00	30.175 
06:45	54.5	54.5	54.5	89	51.3	0	0	---	0.00	30.181 
06:50	54.7	54.7	54.7	88	51.2	0	0	---	0.00	30.181 
06:55	54.8	54.8	54.8	87	51.0	0	0	---	0.00	30.181 
07:00	55.1	55.1	55.1	85	50.7	0	2	270	0.00	30.196 
07:05	55.7	55.7	55.7	83	50.6	0	0	---	0.00	30.196 
07:10	56.0	56.0	56.0	82	50.6	0	0	---	0.00	30.196 
07:15	56.5	56.5	56.5	80	50.4	0	0	---	0.00	30.211 
07:20	56.7	56.7	56.7	79	50.3	0	0	---	0.00	30.211 
07:25	56.9	56.9	56.9	77	49.8	0	0	---	0.00	30.211 
07:30	57.0	57.0	57.0	77	49.9	0	0	---	0.00	30.214 
07:35	57.3	57.3	57.3	76	49.8	0	0	---	0.00	30.214 
07:40	57.5	57.5	57.5	76	50.0	0	0	---	0.00	30.214 
07:45	57.6	57.6	57.6	74	49.4	0	2	270	0.00	30.219 
07:50	58.1	58.1	58.1	72	49.1	0	3	270	0.00	30.219 
07:55	58.4	58.4	58.4	70	48.7	0	2	270	0.00	30.219 
08:00	58.9	58.9	58.9	68	48.4	1	4	68	0.00	30.222 
08:05	59.5	59.5	59.5	67	48.5	1	4	90	0.00	30.222 
08:10	59.8	59.8	59.8	68	49.2	0	2	135	0.00	30.222 
08:15	59.9	59.9	59.9	67	48.9	0	3	135	0.00	30.228 
08:20	60.1	60.1	60.1	68	49.5	0	2	112	0.00	30.228 
08:25	60.2	60.2	60.2	68	49.6	1	4	112	0.00	30.228 
08:30	60.2	60.2	60.2	66	48.8	1	4	112	0.00	30.232 
08:35	60.4	60.4	60.4	67	49.4	1	3	112	0.00	30.232 
08:40	60.4	60.4	60.4	65	48.6	2	5	68	0.00	30.232 
08:45	60.4	60.4	60.4	64	48.2	2	6	112	0.00	30.231 
08:50	60.5	60.5	60.5	64	48.3	1	3	90	0.00	30.231 
08:55	61.0	61.0	61.0	63	48.3	1	5	90	0.00	30.231 
09:00	61.3	61.3	61.3	61	47.7	1	4	90	0.00	30.236 
09:05	61.8	61.8	61.8	61	48.2	1	5	90	0.00	30.236 
09:10	62.6	62.6	62.6	58	47.6	1	4	112	0.00	30.236 
09:15	62.9	62.9	62.9	59	48.3	1	4	112	0.00	30.244 
09:20	62.9	62.9	62.9	57	47.4	1	5	135	0.00	30.244 
09:25	63.1	63.1	63.1	58	48.1	1	4	112	0.00	30.244 
09:30	63.1	63.1	63.1	57	47.6	1	5	135	0.00	30.253 
09:35	63.1	63.1	63.1	57	47.6	1	4	68	0.00	30.253 
09:40	63.2	63.2	63.2	56	47.2	1	4	112	0.00	30.253 
09:45	63.2	63.2	63.2	56	47.2	1	6	90	0.00	30.251 
09:50	63.2	63.2	63.2	56	47.2	1	4	90	0.00	30.251 
09:55	63.1	63.1	63.1	53	45.7	2	4	90	0.00	30.251 
10:00	62.9	62.9	62.9	55	46.5	1	4	90	0.00	30.258 
10:05	63.1	63.1	63.1	55	46.7	2	6	90	0.00	30.258 
10:10	63.4	63.4	63.4	55	46.9	2	5	90	0.00	30.258 
10:15	63.7	63.7	63.7	56	47.7	1	4	90	0.00	30.262 
10:20	64.3	64.3	64.3	56	48.3	1	3	90	0.00	30.262 
10:25	64.7	64.7	64.7	53	47.2	2	6	90	0.00	30.262 
10:30	65.0	65.0	65.0	51	46.4	1	4	90	0.00	30.262 
10:35	65.6	65.6	65.6	51	47.0	1	4	90	0.00	30.262 
10:40	66.1	66.1	66.1	49	46.4	2	4	112	0.00	30.262 
10:45	66.4	66.4	66.4	55	49.7	2	5	112	0.00	30.260 
10:50	66.4	66.4	66.4	48	46.1	1	4	112	0.00	30.260 
10:55	66.8	66.8	66.8	50	47.6	1	4	135	0.00	30.260 
11:00	66.6	66.6	66.6	47	45.7	3	5	90	0.00	30.257 
11:05	66.4	66.4	66.4	50	47.2	2	7	112	0.00	30.257 
11:10	66.9	66.9	66.9	47	46.0	1	4	112	0.00	30.257 
11:15	67.4	67.4	67.4	48	47.0	2	6	90	0.00	30.256 
11:20	67.9	67.9	67.9	52	49.6	1	3	112	0.00	30.256 
11:25	68.3	68.3	68.3	46	46.7	1	4	112	0.00	30.256 
11:30	68.8	68.8	68.8	48	48.3	1	2	112	0.00	30.255 
11:35	69.1	69.1	69.1	45	46.9	1	5	112	0.00	30.255 
11:40	68.8	68.8	68.8	46	47.2	2	5	90	0.00	30.255 
11:45	69.3	69.3	69.3	46	47.6	1	4	90	0.00	30.256 
11:50	69.6	69.6	69.6	46	47.9	1	4	135	0.00	30.256 
11:55	69.9	69.9	69.9	48	49.3	1	4	90	0.00	30.256 
12:00	70.4	70.4	70.4	50	50.9	1	3	90	0.00	30.258 
12:05	70.6	70.6	70.6	47	49.4	1	4	90	0.00	30.258 
12:10	70.6	70.6	70.6	45	48.2	2	5	90	0.00	30.258 
12:15	70.6	70.6	70.6	46	48.8	2	5	90	0.00	30.250 
12:20	70.4	70.4	70.4	42	46.2	2	6	112	0.00	30.250 
12:25	70.8	70.8	70.8	46	49.0	1	5	112	0.00	30.250 
12:30	70.6	70.6	70.6	44	47.6	1	3	90	0.00	30.246 
12:35	70.4	70.4	70.4	44	47.4	1	3	90	0.00	30.246 
12:40	70.8	70.8	70.8	47	49.6	1	3	90	0.00	30.246 
12:45	70.9	70.9	70.9	48	50.2	1	3	90	0.00	30.244 
12:50	71.1	71.1	71.1	46	49.3	0	2	90	0.00	30.244 
12:55	71.5	71.5	71.5	46	49.6	0	4	90	0.00	30.244 
13:00	71.5	71.5	71.5	49	51.3	2	6	90	0.00	30.238 
13:05	71.5	71.5	71.5	44	48.4	1	3	90	0.00	30.238 
13:10	71.5	71.5	71.5	43	47.8	0	3	90	0.00	30.238 
13:15	71.3	71.3	71.3	45	48.8	0	2	90	0.00	30.234 
13:20	71.1	71.1	71.1	44	48.1	1	2	90	0.00	30.234 
13:25	71.1	71.1	71.1	44	48.1	0	1	90	0.00	30.234 
13:30	71.1	71.1	71.1	48	50.4	0	1	90	0.00	30.228 
13:35	71.3	71.3	71.3	42	47.0	0	0	---	0.00	30.228 
13:40	71.8	71.8	71.8	46	49.9	0	4	90	0.00	30.228 
13:45	72.5	72.5	72.5	45	49.9	0	3	90	0.00	30.227 
13:50	73.2	73.2	73.2	45	50.6	0	3	90	0.00	30.227 
13:55	73.9	73.9	73.9	45	51.2	0	1	90	0.00	30.227 
14:00	74.2	74.2	74.2	43	50.2	1	3	90	0.00	30.215 
14:05	74.4	74.4	74.4	43	50.4	2	5	90	0.00	30.215 
14:10	73.7	73.7	73.7	41	48.5	2	6	90	0.00	30.215 
14:15	73.3	73.3	73.3	42	48.8	1	4	90	0.00	30.210 
14:20	73.3	73.3	73.3	43	49.4	0	1	90	0.00	30.210 
14:25	73.3	73.3	73.3	41	48.2	0	1	90	0.00	30.210 
14:30	73.7	73.7	73.7	42	49.2	0	1	90	0.00	30.207 
14:35	74.4	74.4	74.4	47	52.8	0	2	90	0.00	30.207 
14:40	74.9	74.9	74.9	40	48.9	0	2	90	0.00	30.207 
14:45	75.1	75.1	77.4	38	47.7	1	4	90	0.00	30.205 
14:50	75.1	75.1	77.4	37	47.0	0	2	90	0.00	30.205 
14:55	75.3	75.3	77.6	40	49.3	1	5	68	0.00	30.205 
15:00	75.1	75.1	77.5	39	48.4	0	2	68	0.00	30.197 
15:05	75.3	75.3	77.6	41	50.0	0	2	68	0.00	30.197 
15:10	75.4	75.4	77.7	44	52.0	1	3	68	0.00	30.197 
15:15	75.4	75.4	77.5	38	48.0	2	5	68	0.00	30.195 
15:20	75.3	75.3	77.5	38	47.9	0	1	90	0.00	30.195 
15:25	75.3	75.3	77.6	41	50.0	0	2	90	0.00	30.195 
15:30	75.3	75.3	77.6	41	50.0	0	3	90	0.00	30.189 
15:35	75.3	75.3	77.4	36	46.5	0	2	90	0.00	30.189 
15:40	75.3	75.3	77.4	36	46.5	0	2	90	0.00	30.189 
15:45	75.4	75.4	77.4	35	45.8	0	2	90	0.00	30.185 
15:50	75.8	75.8	77.7	39	49.1	1	3	90	0.00	30.185 
15:55	76.1	76.1	77.9	42	51.3	0	3	90	0.00	30.185 
16:00	76.1	76.1	77.8	39	49.3	0	3	90	0.00	30.179 
16:05	76.3	76.3	77.6	34	45.8	2	7	90	0.00	30.179 
16:10	76.0	76.0	77.5	34	45.6	1	2	90	0.00	30.179 
16:15	76.0	76.0	77.7	37	47.8	1	4	90	0.00	30.168 
16:20	76.3	76.3	77.7	35	46.6	1	5	90	0.00	30.168 
16:25	76.5	76.5	77.8	35	46.8	1	4	90	0.00	30.168 
16:30	76.5	76.5	77.8	35	46.8	1	3	90	0.00	30.165 
16:35	76.3	76.3	77.7	35	46.6	1	4	112	0.00	30.165 
16:40	76.5	76.5	77.9	37	48.3	1	4	112	0.00	30.165 
16:45	76.5	76.5	77.7	33	45.2	1	4	112	0.00	30.164 
16:50	76.7	76.7	77.9	35	47.0	0	1	112	0.00	30.164 
16:55	76.7	76.7	77.7	32	44.6	2	5	112	0.00	30.164 
17:00	76.7	76.7	77.9	36	47.7	1	4	90	0.00	30.161 
17:05	76.7	76.7	77.9	36	47.7	1	4	90	0.00	30.161 
17:10	76.7	76.7	78.0	38	49.2	1	5	90	0.00	30.161 
17:15	76.3	76.3	77.7	36	47.4	1	4	90	0.00	30.153 
17:20	76.0	76.0	77.6	36	47.1	1	4	90	0.00	30.153 
17:25	76.0	76.0	77.7	38	48.5	0	3	90	0.00	30.153 
17:30	76.0	76.0	77.6	35	46.4	1	3	90	0.00	30.153 
17:35	76.5	76.5	77.8	35	46.8	1	2	112	0.00	30.153 
17:40	76.5	76.5	77.9	37	48.3	1	3	112	0.00	30.153 
17:45	76.3	76.3	77.8	38	48.8	1	3	112	0.00	30.152 
17:50	76.1	76.1	77.6	35	46.4	1	4	112	0.00	30.152 
17:55	76.0	76.0	77.7	37	47.8	0	3	135	0.00	30.152 
18:00	76.1	76.1	77.8	39	49.3	0	2	135	0.00	30.153 
18:05	76.0	76.0	77.5	34	45.6	1	3	135	0.00	30.153 
18:10	76.0	76.0	77.5	34	45.6	1	3	135	0.00	30.153 
18:15	76.0	76.0	77.6	35	46.4	1	3	90	0.00	30.154 
18:20	75.8	75.8	77.5	34	45.4	0	3	90	0.00	30.154 
18:25	75.8	75.8	77.5	34	45.4	0	2	90	0.00	30.154 
18:30	75.6	75.6	77.4	34	45.2	1	2	90	0.00	30.155 
18:35	75.6	75.6	77.6	37	47.5	0	1	90	0.00	30.155 
18:40	75.3	75.3	77.4	36	46.5	0	1	90	0.00	30.155 
18:45	75.1	75.1	77.3	36	46.3	0	1	90	0.00	30.151 
18:50	74.9	74.9	74.9	40	48.9	0	1	90	0.00	30.151 
18:55	74.7	74.7	74.7	36	46.0	0	1	90	0.00	30.151 
19:00	74.6	74.6	74.6	43	50.6	0	1	90	0.00	30.139 
19:05	74.2	74.2	74.2	39	47.6	1	2	90	0.00	30.139 
19:10	74.2	74.2	74.2	40	48.3	0	2	90	0.00	30.139 
19:15	74.2	74.2	74.2	41	49.0	0	2	90	0.00	30.137 
19:20	74.0	74.0	74.0	43	50.1	0	1	90	0.00	30.137 
19:25	74.0	74.0	74.0	43	50.1	0	1	90	0.00	30.137 
19:30	73.9	73.9	73.9	43	50.0	0	1	90	0.00	30.136 
19:35	73.7	73.7	73.7	42	49.2	0	3	90	0.00	30.136 
19:40	73.5	73.5	73.5	44	50.2	0	1	90	0.00	30.136 
19:45	73.3	73.3	73.3	44	50.1	0	0	---	0.00	30.136 
19:50	73.2	73.2	73.2	45	50.6	0	2	90	0.00	30.136 
19:55	72.8	72.8	72.8	45	50.2	0	1	90	0.00	30.136 
20:00	72.7	72.7	72.7	45	50.1	0	2	90	0.00	30.135 
20:05	72.5	72.5	72.5	46	50.5	0	2	90	0.00	30.135 
20:10	72.3	72.3	72.3	47	50.9	0	2	90	0.00	30.135 
20:15	72.1	72.1	72.1	46	50.2	0	1	90	0.00	30.137 
20:20	71.8	71.8	71.8	46	49.9	0	1	90	0.00	30.137 
20:25	71.8	71.8	71.8	46	49.9	1	3	90	0.00	30.137 
20:30	71.6	71.6	71.6	46	49.7	1	4	90	0.00	30.133 
20:35	71.3	71.3	71.3	46	49.4	1	3	90	0.00	30.133 
20:40	71.1	71.1	71.1	47	49.8	0	1	90	0.00	30.133 
20:45	70.9	70.9	70.9	48	50.2	0	1	90	0.00	30.133 
20:50	70.6	70.6	70.6	48	49.9	0	1	90	0.00	30.133 
20:55	70.3	70.3	70.3	50	50.8	0	1	90	0.00	30.133 
21:00	69.9	69.9	69.9	50	50.4	0	2	90	0.00	30.136 
21:05	69.6	69.6	69.6	52	51.2	0	1	90	0.00	30.136 
21:10	69.3	69.3	69.3	53	51.4	0	1	90	0.00	30.136 
21:15	68.9	68.9	68.9	53	51.1	0	0	---	0.00	30.134 
21:20	68.4	68.4	68.4	54	51.1	0	0	---	0.00	30.134 
21:25	68.1	68.1	68.1	55	51.3	0	0	---	0.00	30.134 
21:30	67.8	67.8	67.8	54	50.5	0	0	---	0.00	30.139 
21:35	67.3	67.3	67.3	54	50.1	0	0	---	0.00	30.139 
21:40	66.9	66.9	66.9	54	49.7	0	0	---	0.00	30.139 
21:45	66.8	66.8	66.8	55	50.1	0	0	---	0.00	30.148 
21:50	66.4	66.4	66.4	56	50.2	0	0	---	0.00	30.148 
21:55	66.1	66.1	66.1	56	49.9	0	0	---	0.00	30.148 
22:00	66.0	66.0	66.0	57	50.3	0	0	---	0.00	30.153 
22:05	65.6	65.6	65.6	58	50.4	0	0	---	0.00	30.153 
22:10	65.3	65.3	65.3	59	50.6	0	0	---	0.00	30.153 
22:15	65.0	65.0	65.0	60	50.8	0	0	---	0.00	30.151 
22:20	64.7	64.7	64.7	61	50.9	0	0	---	0.00	30.151 
22:25	64.5	64.5	64.5	62	51.2	0	0	---	0.00	30.151 
22:30	64.2	64.2	64.2	63	51.3	0	0	---	0.00	30.155 
22:35	63.9	63.9	63.9	65	51.9	0	0	---	0.00	30.155 
22:40	63.7	63.7	63.7	66	52.1	0	0	---	0.00	30.155 
22:45	63.4	63.4	63.4	67	52.2	0	0	---	0.00	30.158 
22:50	63.2	63.2	63.2	68	52.5	0	0	---	0.00	30.158 
22:55	63.1	63.1	63.1	69	52.8	0	0	---	0.00	30.158 
23:00	62.9	62.9	62.9	71	53.3	0	0	---	0.00	30.157 
23:05	62.6	62.6	62.6	73	53.8	0	0	---	0.00	30.157 
23:10	62.3	62.3	62.3	74	53.9	0	0	---	0.00	30.157 
23:15	62.1	62.1	62.1	76	54.4	0	0	---	0.00	30.161 
23:20	62.0	62.0	62.0	77	54.7	0	0	---	0.00	30.161 
23:25	61.8	61.8	61.8	77	54.5	0	0	---	0.00	30.161 
23:30	61.6	61.6	61.6	78	54.7	0	0	---	0.00	30.161 
23:35	61.3	61.3	61.3	78	54.4	0	0	---	0.00	30.161 
23:40	61.2	61.2	61.2	77	53.9	0	0	---	0.00	30.161 
23:45	61.0	61.0	61.0	76	53.4	0	0	---	0.00	30.165 
23:50	60.9	60.9	60.9	77	53.6	0	0	---	0.00	30.165 
23:55	60.5	60.5	60.5	76	52.9	0	0	---	0.00	30.165 

CoCoRaHS
IN-AL-39
A2 Web Hosting
Creative Commons License
GoDaddy
search engine by freefind advanced

loaded 2018-11-17 12:38:49 • last modified 2010-11-18 10:43:29
Privacy PolicyDisclaimer
• wx.awcolley.com is powered by PmWiki v.2002016 •
• all content (unless otherwise noted) © 2018 A W Colley